createdAt,value
2022-10-23T00:01:29.639Z,2.67
2022-10-23T00:04:03.042Z,3.03
2022-10-23T00:06:31.665Z,3.17
2022-10-23T00:08:58.669Z,3.00
2022-10-23T00:11:28.012Z,3.22
2022-10-23T00:13:57.896Z,2.75
2022-10-23T00:16:24.749Z,3.10
2022-10-23T00:18:51.608Z,3.10
2022-10-23T00:21:18.986Z,2.83
2022-10-23T00:23:46.246Z,3.45
2022-10-23T00:26:16.711Z,3.08
2022-10-23T00:28:50.040Z,3.05
2022-10-23T00:31:17.542Z,3.25
2022-10-23T00:33:45.073Z,3.38
2022-10-23T00:36:14.503Z,3.63
2022-10-23T00:38:41.375Z,2.95
2022-10-23T00:41:09.566Z,3.10
2022-10-23T00:44:17.994Z,2.88
2022-10-23T00:46:46.072Z,3.20
2022-10-23T00:49:13.491Z,3.60
2022-10-23T00:51:54.084Z,2.85
2022-10-23T00:54:25.003Z,3.15
2022-10-23T00:56:56.065Z,3.65
2022-10-23T00:59:23.077Z,3.22
2022-10-23T01:01:50.036Z,3.00
2022-10-23T01:04:17.133Z,2.67
2022-10-23T01:07:30.794Z,2.95
2022-10-23T01:10:00.393Z,2.63
2022-10-23T01:12:56.821Z,2.97
2022-10-23T01:15:56.904Z,3.17
2022-10-23T01:19:10.315Z,2.58
2022-10-23T01:22:00.171Z,2.67
2022-10-23T01:25:03.705Z,2.50
2022-10-23T01:27:33.039Z,2.60
2022-10-23T01:30:07.127Z,3.50
2022-10-23T01:33:06.817Z,3.20
2022-10-23T01:36:07.356Z,3.00
2022-10-23T01:38:45.831Z,3.20
2022-10-23T01:41:28.909Z,3.00
2022-10-23T01:44:25.663Z,3.10
2022-10-23T01:46:54.608Z,3.35
2022-10-23T01:49:23.126Z,3.38
2022-10-23T01:51:57.527Z,3.00
2022-10-23T01:54:29.476Z,2.80
2022-10-23T01:56:58.343Z,3.17
2022-10-23T01:59:31.430Z,3.40
2022-10-23T02:01:59.417Z,3.00
2022-10-23T02:04:34.697Z,2.80
2022-10-23T02:07:01.620Z,2.72
2022-10-23T02:09:28.529Z,3.28
2022-10-23T02:12:08.504Z,3.05
2022-10-23T02:14:43.264Z,2.70
2022-10-23T02:17:26.321Z,2.85
2022-10-23T02:20:02.699Z,2.80
2022-10-23T02:22:36.903Z,2.63
2022-10-23T02:25:03.644Z,2.63
2022-10-23T02:27:37.198Z,2.95
2022-10-23T02:30:16.260Z,2.75
2022-10-23T02:32:53.450Z,2.80
2022-10-23T02:35:22.271Z,2.90
2022-10-23T02:37:56.535Z,3.20
2022-10-23T02:40:26.576Z,3.08
2022-10-23T02:43:11.522Z,2.90
2022-10-23T02:45:56.687Z,2.95
2022-10-23T02:48:29.643Z,2.95
2022-10-23T02:50:59.409Z,2.90
2022-10-23T02:53:41.169Z,2.53
2022-10-23T02:56:10.956Z,2.95
2022-10-23T02:58:56.727Z,3.15
2022-10-23T03:01:28.795Z,3.55
2022-10-23T03:04:01.071Z,3.25
2022-10-23T03:06:27.852Z,3.50
2022-10-23T03:09:10.310Z,3.72
2022-10-23T03:11:37.096Z,3.35
2022-10-23T03:14:03.927Z,3.33
2022-10-23T03:16:30.763Z,3.08
2022-10-23T03:18:57.632Z,2.83
2022-10-23T03:21:24.457Z,3.63
2022-10-23T03:23:51.453Z,3.55
2022-10-23T03:26:18.216Z,3.13
2022-10-23T03:28:44.970Z,3.03
2022-10-23T03:31:12.181Z,2.50
2022-10-23T03:33:38.984Z,2.90
2022-10-23T03:36:05.950Z,3.00
2022-10-23T03:38:32.793Z,2.60
2022-10-23T03:40:59.621Z,2.95
2022-10-23T03:43:26.433Z,3.38
2022-10-23T03:45:53.177Z,2.75
2022-10-23T03:48:19.894Z,3.30
2022-10-23T03:50:46.699Z,3.20
2022-10-23T03:53:13.465Z,3.20
2022-10-23T03:55:40.167Z,3.40
2022-10-23T03:58:06.926Z,3.40
2022-10-23T04:00:33.652Z,3.20
2022-10-23T04:03:00.457Z,3.30
2022-10-23T04:05:27.399Z,3.63
2022-10-23T04:07:54.205Z,3.70
2022-10-23T04:10:21.000Z,3.15
2022-10-23T04:12:47.767Z,3.90
2022-10-23T04:15:14.564Z,3.35
2022-10-23T04:17:41.357Z,3.50
2022-10-23T04:20:08.439Z,3.40
2022-10-23T04:22:35.212Z,3.55
2022-10-23T04:25:01.939Z,4.45
2022-10-23T04:27:28.739Z,3.40
2022-10-23T04:29:58.273Z,3.42
2022-10-23T04:32:26.135Z,3.88
2022-10-23T04:34:52.976Z,2.90
2022-10-23T04:37:19.775Z,3.30
2022-10-23T04:39:46.555Z,3.33
2022-10-23T04:42:13.354Z,3.85
2022-10-23T04:44:40.340Z,3.05
2022-10-23T04:47:07.106Z,3.70
2022-10-23T04:49:33.850Z,3.47
2022-10-23T04:52:00.676Z,3.42
2022-10-23T04:54:27.401Z,3.28
2022-10-23T04:56:54.129Z,3.05
2022-10-23T04:59:20.921Z,3.70
2022-10-23T05:01:47.750Z,3.50
2022-10-23T05:04:14.511Z,3.72
2022-10-23T05:06:41.279Z,3.97
2022-10-23T05:09:08.074Z,3.30
2022-10-23T05:11:34.793Z,3.70
2022-10-23T05:14:01.539Z,2.95
2022-10-23T05:16:46.463Z,3.35
2022-10-23T05:19:21.982Z,2.92
2022-10-23T05:21:55.761Z,3.55
2022-10-23T05:24:23.774Z,3.42
2022-10-23T05:26:52.827Z,4.38
2022-10-23T05:29:20.653Z,3.53
2022-10-23T05:31:50.008Z,3.72
2022-10-23T05:34:21.128Z,3.83
2022-10-23T05:36:48.729Z,3.70
2022-10-23T05:39:16.433Z,3.85
2022-10-23T05:41:43.133Z,4.30
2022-10-23T05:44:09.955Z,3.60
2022-10-23T05:46:44.032Z,4.22
2022-10-23T05:49:10.790Z,3.72
2022-10-23T05:51:39.129Z,3.88
2022-10-23T05:54:08.249Z,4.00
2022-10-23T05:56:36.620Z,3.63
2022-10-23T05:59:03.895Z,4.82
2022-10-23T06:01:30.990Z,3.90
2022-10-23T06:04:00.048Z,3.88
2022-10-23T06:06:27.173Z,3.80
2022-10-23T06:08:54.760Z,3.65
2022-10-23T06:11:21.639Z,3.60
2022-10-23T06:13:48.746Z,3.53
2022-10-23T06:16:21.185Z,3.50
2022-10-23T06:18:48.423Z,3.90
2022-10-23T06:21:16.278Z,4.25
2022-10-23T06:23:45.611Z,4.10
2022-10-23T06:26:14.965Z,4.38
2022-10-23T06:28:42.725Z,4.65
2022-10-23T06:31:11.960Z,4.03
2022-10-23T06:33:39.223Z,3.78
2022-10-23T06:36:08.336Z,3.60
2022-10-23T06:38:37.358Z,3.47
2022-10-23T06:41:26.594Z,4.72
2022-10-23T06:43:54.860Z,3.83
2022-10-23T06:46:22.129Z,4.47
2022-10-23T06:48:49.039Z,5.35
2022-10-23T06:51:17.583Z,4.88
2022-10-23T06:53:45.910Z,4.90
2022-10-23T06:56:17.592Z,4.88
2022-10-23T06:58:44.411Z,4.25
2022-10-23T07:01:13.197Z,5.00
2022-10-23T07:03:40.211Z,4.90
2022-10-23T07:06:09.367Z,4.63
2022-10-23T07:08:36.927Z,4.03
2022-10-23T07:11:06.062Z,4.53
2022-10-23T07:13:35.400Z,4.20
2022-10-23T07:16:17.943Z,4.32
2022-10-23T07:18:45.779Z,4.25
2022-10-23T07:21:12.578Z,4.13
2022-10-23T07:23:39.653Z,4.47
2022-10-23T07:26:15.279Z,4.60
2022-10-23T07:28:44.107Z,4.60
2022-10-23T07:31:11.183Z,4.47
2022-10-23T07:33:38.139Z,4.13
2022-10-23T07:36:09.773Z,4.38
2022-10-23T07:38:36.646Z,3.58
2022-10-23T07:41:06.832Z,4.38
2022-10-23T07:43:35.949Z,3.75
2022-10-23T07:46:03.022Z,3.97
2022-10-23T07:48:30.156Z,3.67
2022-10-23T07:51:01.938Z,3.58
2022-10-23T07:53:29.261Z,3.45
2022-10-23T07:56:02.078Z,3.75
2022-10-23T07:58:30.184Z,3.30
2022-10-23T08:00:59.645Z,4.15
2022-10-23T08:03:31.602Z,4.22
2022-10-23T08:05:58.534Z,3.92
2022-10-23T08:08:26.368Z,3.50
2022-10-23T08:10:55.688Z,3.63
2022-10-23T08:13:22.719Z,3.65
2022-10-23T08:15:50.857Z,3.53
2022-10-23T08:18:18.259Z,3.33
2022-10-23T08:20:47.352Z,3.00
2022-10-23T08:23:17.459Z,2.65
2022-10-23T08:25:44.807Z,3.55
2022-10-23T08:28:12.136Z,3.25
2022-10-23T08:30:41.502Z,2.92
2022-10-23T08:33:08.397Z,2.22
2022-10-23T08:35:38.921Z,3.20
2022-10-23T08:38:06.856Z,2.70
2022-10-23T08:40:35.478Z,2.63
2022-10-23T08:43:24.475Z,3.17
2022-10-23T08:45:53.776Z,5.30
2022-10-23T08:48:30.201Z,3.67
2022-10-23T08:51:05.350Z,3.95
2022-10-23T08:53:44.297Z,3.80
2022-10-23T08:56:37.898Z,2.88
2022-10-23T08:59:20.511Z,3.90
2022-10-23T09:01:53.618Z,3.35
2022-10-23T09:04:20.535Z,3.72
2022-10-23T09:07:06.115Z,4.60
2022-10-23T09:09:51.395Z,3.42
2022-10-23T09:12:22.126Z,3.30
2022-10-23T09:15:03.698Z,3.40
2022-10-23T09:17:39.110Z,3.10
2022-10-23T09:20:13.143Z,3.05
2022-10-23T09:22:40.930Z,3.17
2022-10-23T09:25:15.569Z,2.92
2022-10-23T09:27:49.671Z,3.50
2022-10-23T09:30:26.209Z,2.85
2022-10-23T09:32:53.079Z,3.40
2022-10-23T09:35:25.309Z,3.78
2022-10-23T09:37:53.404Z,3.13
2022-10-23T09:40:30.084Z,3.15
2022-10-23T09:43:04.151Z,3.10
2022-10-23T09:45:33.544Z,4.32
2022-10-23T09:48:10.438Z,3.63
2022-10-23T09:50:37.417Z,3.05
2022-10-23T09:53:04.410Z,3.28
2022-10-23T09:55:31.293Z,2.80
2022-10-23T09:57:58.138Z,2.80
2022-10-23T10:00:27.089Z,2.33
2022-10-23T10:03:04.605Z,2.80
2022-10-23T10:05:41.962Z,2.78
2022-10-23T10:08:20.322Z,2.83
2022-10-23T10:11:12.633Z,2.67
2022-10-23T10:13:57.343Z,2.50
2022-10-23T10:16:36.063Z,2.85
